Latest Coastal Weather Observations for Hervey Bay

IDQ60701

Issued at 12:31 am EST Friday 6 March 2015 (issued every 10 minutes, with the page automatically refreshed every 10 minutes)

About coastal observations | Map of coastal stations | Coastal observations for QLD | Marine services | Other Formats
Station Details ID: 040405 Name: HERVEY BAY AIRPORT Lat: -25.32 Lon: 152.88 Height: 12.98 m
Data from the previous 72 hours. | See also: Recent months at Hervey Bay
Date/Time
EST
Temp

°C
Wind Pressure Rain
since 9am
mm
Weather Cloud Vis
km
Sea
Height
m
Swell
Dir
 
Speed
knots
Gust
knots
hPa Trend Height
m
Period
s
Dir
06/12:30am 26.7 NW 5 7 1005.4 - 0.0 - - 10 - - - -
06/12:00am 26.9 NNW 6 8 1005.3 - 0.0 - - 10 - - - -
 
Date/Time
EST
Temp

°C
Wind Pressure Rain
since 9am
mm
Weather Cloud Vis
km
Sea
Height
m
Swell
Dir
 
Speed
knots
Gust
knots
hPa Trend Height
m
Period
s
Dir
05/11:30pm 26.8 N 5 7 1005.6 - 0.0 - - 10 - - - -
05/11:00pm 26.9 N 4 5 1006.1 - 0.0 - - 10 - - - -
05/10:30pm 27.1 NNW 6 9 1006.0 - 0.0 - - 10 - - - -
05/10:00pm 27.0 NNW 6 9 1005.9 - 0.0 - - 10 - - - -
05/09:30pm 27.0 NNW 7 11 1005.9 - 0.0 - - 10 - - - -
05/09:00pm 27.1 NNW 9 12 1005.7 - 0.0 - - 10 - - - -
05/08:30pm 27.2 N 11 15 1005.6 - 0.0 - - 10 - - - -
05/08:00pm 27.2 N 10 15 1005.4 - 0.0 - - 10 - - - -
05/07:30pm 27.3 N 11 16 1005.3 - 0.0 - - 10 - - - -
05/07:00pm 27.3 N 11 15 1005.1 - 0.0 - - 10 - - - -
05/06:30pm 27.3 N 11 15 1005.0 - 0.0 - - 10 - - - -
05/06:00pm 27.4 N 13 17 1004.9 - 0.0 - - 10 - - - -
05/05:30pm 28.0 N 13 17 1004.9 - 0.0 - - 10 - - - -
05/05:00pm 28.7 N 13 19 1004.9 - 0.0 - - 10 - - - -
05/04:30pm 29.1 N 13 18 1005.1 - 0.0 - - 10 - - - -
05/04:00pm 29.5 N 13 18 1005.2 - 0.0 - - 10 - - - -
05/03:30pm 29.5 N 14 19 1005.3 - 0.0 - - 10 - - - -
05/03:00pm 29.9 N 14 19 1005.3 - 0.0 - - 10 - - - -
05/02:30pm 30.1 N 14 18 1005.7 - 0.0 - - 10 - - - -
05/02:00pm 29.8 N 13 17 1006.1 - 0.0 - - 10 - - - -
05/01:30pm 29.9 NNW 13 19 1006.8 - 0.0 - - 10 - - - -
05/01:00pm 30.1 N 13 18 1007.5 - 0.0 - - 10 - - - -
05/12:30pm 30.2 N 13 18 1007.9 - 0.0 - - 10 - - - -
05/12:00pm 29.8 N 13 17 1008.2 - 0.0 - - 10 - - - -
05/11:30am 30.3 NNW 12 16 1008.6 - 0.0 - - 10 - - - -
05/11:00am 29.7 NNW 13 17 1009.0 - 0.0 - - 10 - - - -
05/10:30am 30.0 N 11 15 1009.5 - 0.0 - - 10 - - - -
05/10:00am 29.6 NNW 12 16 1009.9 - 0.0 - - 10 - - - -
05/09:30am 29.2 NW 10 15 1010.1 - 0.0 - Partly cloudy 10 - - - -
05/09:00am 28.7 NW 9 14 1010.1 - 0.0 - Mostly clear 10 - - - -
05/08:30am 28.5 WNW 9 12 1010.1 - 0.0 - Partly cloudy 10 - - - -
05/08:00am 27.3 WNW 7 10 1010.2 - 0.0 - Partly cloudy 10 - - - -
05/07:30am 26.5 W 5 8 1010.1 - 0.0 - - 10 - - - -
05/07:00am 24.7 W 4 5 1010.1 - 0.0 - - 10 - - - -
05/06:30am 22.6 CALM 0 0 1009.8 - 0.0 - - 10 - - - -
05/06:00am 22.1 CALM 0 0 1009.7 - 0.0 - - 10 - - - -
05/05:30am 22.1 WSW 3 4 1009.5 - 0.0 - Partly cloudy 10 - - - -
05/05:00am 22.6 CALM 0 0 1009.2 - 0.0 - Partly cloudy 10 - - - -
05/04:30am 22.9 WSW 4 5 1009.2 - 0.0 - Partly cloudy 10 - - - -
05/04:00am 22.9 SW 3 4 1009.2 - 0.0 - Partly cloudy 10 - - - -
05/03:30am 23.0 CALM 0 0 1009.2 - 0.0 - Partly cloudy 10 - - - -
05/03:00am 22.9 CALM 0 0 1009.4 - 0.0 - Partly cloudy 10 - - - -
05/02:30am 23.4 CALM 0 0 1009.6 - 0.0 - Partly cloudy 10 - - - -
05/02:00am 23.4 CALM 0 0 1010.0 - 0.0 - Partly cloudy 10 - - - -
05/01:30am 22.8 CALM 0 0 1010.4 - 0.0 - Partly cloudy 10 - - - -
05/01:00am 22.2 CALM 0 0 1010.7 - 0.0 - Partly cloudy 10 - - - -
05/12:30am 22.0 CALM 0 0 1011.2 - 0.0 - Partly cloudy 10 - - - -
05/12:00am 22.5 CALM 0 0 1011.7 - 0.0 - Mostly clear 10 - - - -
 
Date/Time
EST
Temp

°C
Wind Pressure Rain
since 9am
mm
Weather Cloud Vis
km
Sea
Height
m
Swell
Dir
 
Speed
knots
Gust
knots
hPa Trend Height
m
Period
s
Dir
04/11:30pm 22.3 CALM 0 0 1012.1 - 0.0 - Partly cloudy 10 - - - -
04/11:00pm 22.2 CALM 0 0 1012.3 - 0.0 - - 10 - - - -
04/10:30pm 22.6 CALM 0 0 1012.4 - 0.0 - - 10 - - - -
04/10:00pm 23.2 CALM 0 0 1012.4 - 0.0 - - 10 - - - -
04/09:30pm 24.8 ENE 3 5 1012.6 - 0.0 - - 10 - - - -
04/09:00pm 25.1 E 5 7 1012.6 - 0.0 - - 10 - - - -
04/08:30pm 25.2 ENE 5 7 1012.4 - 0.0 - - 10 - - - -
04/08:00pm 25.3 E 7 9 1012.2 - 0.0 - - 10 - - - -
04/07:30pm 25.5 ENE 6 8 1012.0 - 0.0 - - 10 - - - -
04/07:00pm 25.7 E 7 9 1011.6 - 0.0 - - 10 - - - -
04/06:30pm 26.1 E 9 11 1011.4 - 0.0 - - 10 - - - -
04/06:00pm 26.9 E 8 11 1011.3 - 0.0 - - 10 - - - -
04/05:30pm 28.0 E 9 11 1011.2 - 0.0 - - 10 - - - -
04/05:00pm 28.7 E 9 11 1011.1 - 0.0 - - 10 - - - -
04/04:30pm 29.1 ESE 9 12 1010.9 - 0.0 - - 10 - - - -
04/04:00pm 29.5 E 11 13 1010.7 - 0.0 - - 10 - - - -
04/03:30pm 30.2 E 10 14 1010.6 - 0.0 - - 10 - - - -
04/03:00pm 30.1 E 10 13 1010.9 - 0.0 - - 10 - - - -
04/02:30pm 30.9 ESE 8 13 1011.3 - 0.0 - - 10 - - - -
04/02:00pm 30.3 E 9 13 1011.5 - 0.0 - - 10 - - - -
04/01:30pm 30.4 ESE 8 12 1012.0 - 0.0 - - 10 - - - -
04/01:00pm 29.9 ESE 8 13 1012.3 - 0.0 - - 10 - - - -
04/12:30pm 29.7 E 8 12 1012.6 - 0.0 - - 10 - - - -
04/12:00pm 29.9 E 8 12 1012.9 - 0.0 - - 10 - - - -
04/11:30am 29.9 SE 7 10 1013.3 - 0.0 - - 10 - - - -
04/11:00am 29.0 ESE 7 14 1013.7 - 0.0 - - 10 - - - -
04/10:30am 29.4 SE 7 12 1013.9 - 0.0 - - 10 - - - -
04/10:00am 28.9 SE 6 10 1014.1 - 0.0 - - 10 - - - -
04/09:30am 28.2 SE 7 10 1014.1 - 0.0 - - 10 - - - -
04/09:00am 27.9 ESE 6 10 1014.1 - 0.0 - - 10 - - - -
04/08:30am 27.0 S 5 9 1014.0 - 0.0 - - 10 - - - -
04/08:00am 25.3 SW 5 8 1013.7 - 0.0 - - 10 - - - -
04/07:30am 23.4 SW 5 7 1013.6 - 0.0 - - 10 - - - -
04/07:00am 22.2 SSW 6 8 1013.4 - 0.0 - - 10 - - - -
04/06:30am 21.0 SSW 7 8 1013.1 - 0.0 - - 10 - - - -
04/06:00am 20.1 SW 5 7 1013.0 - 0.0 - - 10 - - - -
04/05:30am 20.1 SW 7 8 1012.8 - 0.0 - - 10 - - - -
04/05:00am 20.5 SW 5 7 1012.8 - 0.0 - - 10 - - - -
04/04:30am 21.0 SW 5 7 1012.8 - 0.0 - Partly cloudy 10 - - - -
04/04:00am 20.7 SW 5 7 1012.5 - 0.0 - Partly cloudy 10 - - - -
04/03:30am 20.3 W 3 4 1012.7 - 0.0 - Partly cloudy 10 - - - -
04/03:00am 20.7 SW 5 8 1012.9 - 0.0 - Mostly clear 10 - - - -
04/02:30am 20.8 SW 3 5 1012.9 - 0.0 - - 10 - - - -
04/02:00am 20.8 SW 4 6 1013.2 - 0.0 - - 10 - - - -
04/01:30am 21.1 SSW 6 8 1013.4 - 0.0 - - 10 - - - -
04/01:00am 21.2 SSW 6 8 1013.7 - 0.0 - - 10 - - - -
04/12:30am 21.4 WSW 3 5 1014.0 - 0.0 - - 10 - - - -
04/12:00am 22.1 WSW 4 5 1014.3 - 0.0 - - 10 - - - -
 
Date/Time
EST
Temp

°C
Wind Pressure Rain
since 9am
mm
Weather Cloud Vis
km
Sea
Height
m
Swell
Dir
 
Speed
knots
Gust
knots
hPa Trend Height
m
Period
s
Dir
03/11:30pm 24.0 S 5 7 1014.5 - 0.0 - - 10 - - - -
03/11:00pm 24.2 SE 6 9 1014.7 - 0.0 - - 10 - - - -
03/10:30pm 24.6 SE 6 9 1014.6 - 0.0 - - 10 - - - -
03/10:00pm 24.9 SE 6 9 1014.7 - 0.0 - - 10 - - - -
03/09:30pm 25.0 SE 7 11 1014.6 - 0.0 - - 10 - - - -
03/09:00pm 24.5 SSE 5 7 1014.6 - 0.0 - - 10 - - - -
03/08:30pm 24.6 SSE 5 8 1014.5 - 0.0 - - 10 - - - -
03/08:00pm 24.8 SSE 6 10 1014.1 - 0.0 - - 10 - - - -
03/07:30pm 25.1 SSE 6 10 1013.7 - 0.0 - - 10 - - - -
03/07:00pm 25.2 SE 7 13 1013.5 - 0.0 - - 10 - - - -
03/06:30pm 25.6 SE 9 14 1013.3 - 0.0 - - 10 - - - -
03/06:00pm 26.1 SE 10 15 1013.0 - 0.0 - - 10 - - - -
03/05:30pm 26.9 SE 10 20 1012.6 - 0.0 - Partly cloudy 10 - - - -
03/05:00pm 28.0 SE 10 19 1012.5 - 0.0 - Partly cloudy 10 - - - -
03/04:30pm 28.2 SE 13 17 1012.2 - 0.0 - Partly cloudy 10 - - - -
03/04:00pm 28.9 SSE 11 17 1012.1 - 0.0 - - 10 - - - -
03/03:30pm 29.1 SE 10 15 1012.0 - 0.0 - - 10 - - - -
03/03:00pm 29.5 SE 12 17 1011.9 - 0.0 - - 10 - - - -
03/02:30pm 29.6 ESE 12 19 1012.1 - 0.0 - - 10 - - - -
03/02:00pm 29.6 SE 13 19 1012.4 - 0.0 - - 10 - - - -
03/01:30pm 29.9 SE 12 17 1012.9 - 0.0 - - 10 - - - -
03/01:00pm 30.0 SE 12 20 1013.0 - 0.0 - - 10 - - - -
03/12:30pm 30.0 SE 12 19 1013.3 - 0.0 - - 10 - - - -
03/12:00pm 30.0 SSE 10 18 1013.5 - 0.0 - - 10 - - - -
03/11:30am 29.6 SSE 11 18 1014.0 - 0.0 - - 10 - - - -
03/11:00am 29.6 SE 11 18 1014.3 - 0.0 - - 10 - - - -
03/10:30am 29.4 SE 11 16 1014.5 - 0.0 - - 10 - - - -
03/10:00am 28.8 SE 11 17 1014.5 - 0.0 - - 10 - - - -
03/09:30am 29.1 SE 11 16 1014.5 - 0.0 - - 10 - - - -
03/09:00am 28.0 SE 11 18 1014.4 - 0.0 - - 10 - - - -
03/08:30am 27.7 SE 9 16 1014.3 - 0.0 - - 10 - - - -
03/08:00am 26.7 SE 10 16 1014.2 - 0.0 - - 10 - - - -
03/07:30am 26.7 SSE 9 16 1013.8 - 0.0 - - 10 - - - -
03/07:00am 24.5 SSW 6 7 1013.6 - 0.0 - - 10 - - - -
03/06:30am 22.8 WSW 6 8 1013.5 - 0.0 - - 10 - - - -
03/06:00am 23.2 SSW 5 6 1013.1 - 0.0 - - 10 - - - -
03/05:30am 23.6 SSE 4 5 1012.8 - 0.0 - - 10 - - - -
03/05:00am 23.3 SSE 5 6 1012.6 - 0.0 - - 10 - - - -
03/04:30am 23.3 S 5 6 1012.4 - 0.0 - - 10 - - - -
03/04:00am 23.9 SSE 4 6 1012.2 - 0.0 - Partly cloudy 10 - - - -
03/03:30am 23.8 S 5 7 1012.3 - 0.0 - - 10 - - - -
03/03:00am 24.1 SSE 4 6 1012.4 - 0.0 - - 10 - - - -
03/02:30am 24.5 SE 5 9 1012.3 - 0.0 - - 10 - - - -
03/02:00am 25.0 SSE 7 11 1012.4 - 0.0 - - 10 - - - -
03/01:30am 24.8 SE 8 13 1012.7 - 0.0 - - 10 - - - -
03/01:00am 25.2 SSE 8 13 1012.9 - 0.0 - Partly cloudy 10 - - - -

Other Formats:

Comma delimited format used in spreadsheet applications
http://www.bom.gov.au/fwo/IDQ60701/IDQ60701.95565.axf

JavaScript Object Notation format (JSON) in row-major order
http://www.bom.gov.au/fwo/IDQ60701/IDQ60701.95565.json